createdAt,value
2019-04-06T00:02:36.013Z,16.82
2019-04-06T00:05:08.714Z,21.17
2019-04-06T00:07:40.176Z,23.45
2019-04-06T00:10:12.246Z,21.80
2019-04-06T00:12:43.793Z,20.17
2019-04-06T00:15:15.727Z,21.62
2019-04-06T00:17:47.507Z,18.85
2019-04-06T00:20:18.977Z,20.85
2019-04-06T00:22:50.544Z,17.57
2019-04-06T00:25:22.042Z,18.32
2019-04-06T00:27:53.602Z,17.12
2019-04-06T00:30:25.150Z,18.02
2019-04-06T00:33:03.384Z,21.55
2019-04-06T00:35:34.955Z,20.15
2019-04-06T00:38:06.457Z,19.52
2019-04-06T00:40:38.059Z,19.05
2019-04-06T00:43:09.553Z,21.55
2019-04-06T00:45:41.020Z,15.13
2019-04-06T00:48:12.434Z,19.62
2019-04-06T00:50:43.655Z,21.20
2019-04-06T00:53:14.927Z,20.57
2019-04-06T00:55:55.150Z,21.70
2019-04-06T00:58:19.392Z,21.87
2019-04-06T01:00:51.990Z,18.67
2019-04-06T01:03:23.661Z,19.67
2019-04-06T01:05:55.330Z,20.77
2019-04-06T01:08:26.888Z,22.80
2019-04-06T01:10:58.537Z,25.48
2019-04-06T01:13:30.249Z,23.92
2019-04-06T01:16:02.252Z,22.75
2019-04-06T01:18:33.926Z,21.87
2019-04-06T01:21:05.565Z,24.60
2019-04-06T01:23:37.397Z,20.35
2019-04-06T01:26:08.921Z,24.95
2019-04-06T01:28:40.741Z,21.35
2019-04-06T01:31:12.424Z,20.77
2019-04-06T01:33:44.366Z,23.67
2019-04-06T01:36:16.148Z,22.15
2019-04-06T01:38:47.989Z,20.92
2019-04-06T01:41:19.740Z,25.68
2019-04-06T01:43:51.197Z,26.75
2019-04-06T01:46:22.831Z,24.80
2019-04-06T01:48:54.445Z,25.48
2019-04-06T01:51:26.063Z,22.25
2019-04-06T01:53:57.501Z,21.52
2019-04-06T01:56:29.950Z,23.62
2019-04-06T01:59:01.677Z,25.30
2019-04-06T02:01:37.414Z,26.23
2019-04-06T02:04:08.850Z,25.17
2019-04-06T02:06:40.595Z,24.02
2019-04-06T02:09:12.402Z,24.67
2019-04-06T02:11:44.062Z,25.12
2019-04-06T02:14:15.568Z,30.27
2019-04-06T02:16:47.175Z,27.32
2019-04-06T02:19:18.825Z,27.37
2019-04-06T02:21:50.332Z,25.32
2019-04-06T02:24:23.190Z,25.95
2019-04-06T02:26:54.856Z,25.15
2019-04-06T02:29:26.216Z,29.23
2019-04-06T02:32:15.328Z,26.07
2019-04-06T02:35:12.707Z,28.10
2019-04-06T02:38:00.635Z,27.82
2019-04-06T02:40:49.380Z,27.98
2019-04-06T02:43:29.342Z,28.42
2019-04-06T02:46:01.922Z,26.82
2019-04-06T02:48:33.731Z,31.27
2019-04-06T02:51:06.399Z,27.70
2019-04-06T02:53:38.220Z,25.88
2019-04-06T02:56:10.026Z,30.35
2019-04-06T02:58:41.641Z,29.35
2019-04-06T03:01:13.309Z,34.58
2019-04-06T03:03:44.912Z,28.50
2019-04-06T03:06:16.473Z,25.80
2019-04-06T03:08:48.483Z,33.08
2019-04-06T03:11:20.424Z,27.67
2019-04-06T03:13:52.250Z,30.15
2019-04-06T03:16:24.051Z,28.90
2019-04-06T03:18:55.555Z,28.57
2019-04-06T03:21:27.073Z,25.60
2019-04-06T03:23:58.338Z,31.52
2019-04-06T03:26:29.593Z,29.00
2019-04-06T03:29:01.325Z,27.85
2019-04-06T03:31:32.854Z,25.27
2019-04-06T03:34:04.326Z,27.48
2019-04-06T03:36:35.905Z,29.15
2019-04-06T03:39:08.496Z,23.15
2019-04-06T03:41:39.771Z,26.17
2019-04-06T03:44:11.367Z,25.90
2019-04-06T03:46:42.902Z,27.60
2019-04-06T03:49:14.520Z,28.42
2019-04-06T03:51:46.357Z,26.75
2019-04-06T03:54:18.132Z,24.82
2019-04-06T03:56:49.601Z,25.85
2019-04-06T03:59:21.308Z,29.07
2019-04-06T04:01:53.169Z,30.45
2019-04-06T04:04:24.547Z,29.15
2019-04-06T04:06:56.315Z,30.72
2019-04-06T04:09:27.671Z,30.20
2019-04-06T04:11:59.208Z,29.32
2019-04-06T04:14:30.530Z,29.95
2019-04-06T04:17:02.222Z,28.67
2019-04-06T04:19:34.225Z,30.00
2019-04-06T04:22:05.864Z,32.75
2019-04-06T04:24:37.552Z,31.57
2019-04-06T04:27:08.801Z,32.50
2019-04-06T04:29:40.328Z,31.05
2019-04-06T04:32:11.774Z,31.20
2019-04-06T04:34:43.169Z,27.35
2019-04-06T04:37:14.432Z,31.37
2019-04-06T04:39:45.830Z,31.23
2019-04-06T04:42:17.584Z,34.43
2019-04-06T04:44:49.046Z,31.52
2019-04-06T04:47:20.548Z,30.48
2019-04-06T04:49:51.997Z,37.90
2019-04-06T04:52:23.643Z,33.90
2019-04-06T04:54:54.962Z,33.63
2019-04-06T04:57:26.564Z,36.42
2019-04-06T04:59:58.108Z,31.65
2019-04-06T05:02:29.499Z,26.75
2019-04-06T05:05:00.836Z,31.50
2019-04-06T05:07:32.240Z,33.70
2019-04-06T05:10:03.684Z,34.83
2019-04-06T05:12:35.193Z,39.33
2019-04-06T05:15:10.160Z,31.97
2019-04-06T05:17:41.693Z,32.67
2019-04-06T05:20:13.614Z,32.93
2019-04-06T05:22:45.212Z,33.60
2019-04-06T05:25:16.668Z,36.53
2019-04-06T05:27:52.722Z,34.53
2019-04-06T05:30:21.162Z,39.40
2019-04-06T05:32:52.635Z,31.60
2019-04-06T05:35:24.153Z,32.35
2019-04-06T05:37:55.816Z,34.33
2019-04-06T05:40:27.237Z,32.50
2019-04-06T05:42:58.458Z,35.25
2019-04-06T05:45:29.740Z,33.98
2019-04-06T05:48:01.305Z,32.45
2019-04-06T05:50:32.658Z,30.17
2019-04-06T05:53:04.054Z,30.48
2019-04-06T05:55:35.530Z,32.67
2019-04-06T05:58:10.074Z,34.73
2019-04-06T06:00:41.241Z,30.30
2019-04-06T06:03:12.614Z,33.23
2019-04-06T06:05:44.237Z,32.98
2019-04-06T06:08:16.014Z,34.20
2019-04-06T06:10:47.438Z,31.15
2019-04-06T06:13:18.724Z,31.37
2019-04-06T06:15:50.076Z,29.25
2019-04-06T06:18:27.465Z,29.32
2019-04-06T06:20:54.982Z,31.35
2019-04-06T06:23:26.800Z,26.12
2019-04-06T06:25:58.471Z,30.68
2019-04-06T06:28:30.008Z,31.60
2019-04-06T06:31:03.923Z,29.92
2019-04-06T06:33:35.602Z,31.15
2019-04-06T06:36:07.539Z,30.08
2019-04-06T06:38:39.273Z,35.10
2019-04-06T06:41:10.856Z,28.57
2019-04-06T06:43:42.448Z,32.17
2019-04-06T06:46:14.159Z,26.05
2019-04-06T06:48:45.638Z,29.55
2019-04-06T06:51:17.339Z,33.20
2019-04-06T06:53:48.969Z,34.20
2019-04-06T06:56:20.566Z,32.95
2019-04-06T06:58:52.332Z,29.63
2019-04-06T07:01:24.144Z,29.00
2019-04-06T07:03:55.553Z,29.70
2019-04-06T07:06:26.976Z,32.73
2019-04-06T07:08:58.178Z,28.92
2019-04-06T07:11:29.652Z,25.32
2019-04-06T07:14:00.966Z,28.50
2019-04-06T07:16:32.336Z,28.20
2019-04-06T07:19:04.099Z,27.02
2019-04-06T07:21:36.065Z,25.43
2019-04-06T07:24:07.494Z,27.90
2019-04-06T07:26:41.180Z,25.65
2019-04-06T07:29:12.825Z,26.97
2019-04-06T07:31:44.159Z,26.15
2019-04-06T07:34:15.409Z,26.48
2019-04-06T07:36:46.707Z,28.07
2019-04-06T07:39:19.253Z,28.73
2019-04-06T07:41:50.753Z,30.10
2019-04-06T07:44:22.358Z,25.08
2019-04-06T07:46:53.729Z,31.33
2019-04-06T07:49:24.787Z,27.37
2019-04-06T07:51:56.199Z,26.37
2019-04-06T07:54:27.370Z,28.10
2019-04-06T07:56:58.757Z,24.83
2019-04-06T07:59:29.956Z,22.70
2019-04-06T08:02:01.526Z,25.75
2019-04-06T08:04:32.620Z,27.63
2019-04-06T08:07:03.838Z,27.33
2019-04-06T08:09:35.117Z,21.47
2019-04-06T08:12:06.499Z,26.83
2019-04-06T08:14:38.675Z,22.23
2019-04-06T08:17:09.845Z,25.00
2019-04-06T08:19:41.150Z,26.50
2019-04-06T08:22:12.342Z,23.10
2019-04-06T08:24:43.570Z,24.00
2019-04-06T08:27:14.911Z,29.77
2019-04-06T08:29:46.008Z,27.73
2019-04-06T08:32:17.605Z,28.73
2019-04-06T08:34:48.849Z,25.50
2019-04-06T08:37:20.104Z,25.30
2019-04-06T08:39:51.413Z,23.10
2019-04-06T08:42:22.651Z,26.30
2019-04-06T08:44:53.665Z,29.93
2019-04-06T08:47:24.749Z,26.23
2019-04-06T08:49:56.005Z,25.27
2019-04-06T08:52:27.197Z,34.27
2019-04-06T08:54:58.519Z,30.67
2019-04-06T08:57:29.926Z,24.57
2019-04-06T09:00:00.876Z,25.93
2019-04-06T09:02:32.289Z,22.73
2019-04-06T09:05:03.484Z,21.77
2019-04-06T09:07:34.772Z,27.90
2019-04-06T09:10:07.171Z,22.73
2019-04-06T09:12:38.421Z,23.70
2019-04-06T09:15:10.234Z,25.97
2019-04-06T09:17:41.723Z,22.77
2019-04-06T09:20:10.752Z,24.47
2019-04-06T09:22:42.284Z,22.23
2019-04-06T09:25:13.557Z,25.33
2019-04-06T09:27:44.874Z,23.07
2019-04-06T09:30:17.142Z,26.70
2019-04-06T09:32:48.462Z,27.43
2019-04-06T09:35:20.197Z,23.33
2019-04-06T09:37:51.291Z,21.43
2019-04-06T09:40:22.442Z,23.13
2019-04-06T09:42:53.959Z,20.97
2019-04-06T09:46:03.598Z,23.23
2019-04-06T09:48:48.081Z,22.27
2019-04-06T09:51:41.444Z,30.57
2019-04-06T09:54:35.724Z,22.67
2019-04-06T09:57:18.551Z,23.40
2019-04-06T10:00:04.200Z,21.23
2019-04-06T10:02:55.034Z,21.83
2019-04-06T10:05:32.783Z,22.37
2019-04-06T10:08:18.506Z,23.00
2019-04-06T10:11:21.270Z,22.00
2019-04-06T10:14:02.271Z,20.50
2019-04-06T10:17:03.787Z,20.87
2019-04-06T10:19:55.308Z,20.87
2019-04-06T10:22:35.950Z,23.77
2019-04-06T10:25:24.549Z,20.87
2019-04-06T10:28:26.671Z,20.73
2019-04-06T10:31:22.902Z,19.93
2019-04-06T10:34:22.072Z,21.47
2019-04-06T10:37:13.828Z,19.57
2019-04-06T10:40:06.771Z,19.60
2019-04-06T10:43:04.725Z,18.90
2019-04-06T10:46:06.916Z,23.63
2019-04-06T10:49:00.262Z,22.07
2019-04-06T10:51:41.330Z,18.60
2019-04-06T10:54:34.095Z,17.70
2019-04-06T10:57:23.052Z,25.73
2019-04-06T11:00:05.724Z,18.97
2019-04-06T11:03:03.335Z,17.20
2019-04-06T11:06:13.192Z,19.07
2019-04-06T11:09:10.025Z,17.60
2019-04-06T11:11:58.733Z,19.17
2019-04-06T11:14:44.426Z,19.67
2019-04-06T11:17:33.223Z,17.73
2019-04-06T11:20:29.787Z,16.93
2019-04-06T11:23:38.210Z,18.97
2019-04-06T11:26:34.316Z,18.33
2019-04-06T11:29:24.297Z,19.63
2019-04-06T11:32:20.329Z,16.73
2019-04-06T11:35:11.659Z,19.77
2019-04-06T11:38:16.839Z,16.80
2019-04-06T11:41:01.203Z,18.83
2019-04-06T11:44:09.522Z,16.80
2019-04-06T11:46:57.084Z,14.30
2019-04-06T11:49:41.471Z,13.37
2019-04-06T11:52:28.124Z,15.60
2019-04-06T11:55:13.570Z,14.97
2019-04-06T11:58:02.196Z,14.83
2019-04-06T12:00:50.627Z,15.23
2019-04-06T12:03:36.269Z,15.50
2019-04-06T12:06:35.413Z,15.97
2019-04-06T12:09:36.198Z,15.33
2019-04-06T12:12:23.951Z,18.13
2019-04-06T12:15:04.113Z,15.80
2019-04-06T12:18:03.642Z,15.33
2019-04-06T12:20:57.217Z,16.03
2019-04-06T12:23:47.074Z,17.57
2019-04-06T12:26:32.504Z,14.40
2019-04-06T12:29:17.465Z,15.73
2019-04-06T12:32:07.558Z,15.53
2019-04-06T12:34:56.523Z,14.27
2019-04-06T12:37:47.045Z,15.73
2019-04-06T12:40:31.543Z,15.73
2019-04-06T12:43:22.537Z,15.70
2019-04-06T12:46:15.693Z,16.90
2019-04-06T12:49:05.798Z,17.03
2019-04-06T12:51:53.068Z,16.07
2019-04-06T12:54:49.237Z,17.83
2019-04-06T12:57:51.615Z,15.13
2019-04-06T13:00:50.865Z,14.73
2019-04-06T13:03:32.712Z,15.40
2019-04-06T13:06:25.826Z,14.37
2019-04-06T13:09:16.018Z,13.63
2019-04-06T13:11:55.390Z,12.37
2019-04-06T13:14:50.035Z,15.30
2019-04-06T13:17:40.592Z,16.47
2019-04-06T13:20:49.551Z,16.23
2019-04-06T13:23:48.841Z,12.93
2019-04-06T13:26:41.775Z,12.60
2019-04-06T13:29:25.718Z,13.23
2019-04-06T13:32:16.013Z,14.67
2019-04-06T13:34:53.029Z,13.80
2019-04-06T13:37:44.819Z,14.07
2019-04-06T13:40:35.108Z,12.00
2019-04-06T13:43:16.642Z,12.87
2019-04-06T13:46:06.852Z,11.00
2019-04-06T13:49:02.821Z,14.40
2019-04-06T13:51:56.077Z,15.30
2019-04-06T13:54:46.531Z,15.70
2019-04-06T13:57:40.095Z,12.33
2019-04-06T14:00:25.331Z,15.30
2019-04-06T14:03:24.695Z,15.93
2019-04-06T14:06:30.072Z,15.07
2019-04-06T14:09:19.855Z,14.37
2019-04-06T14:11:56.810Z,16.13
2019-04-06T14:14:34.291Z,11.47
2019-04-06T14:17:24.731Z,15.87
2019-04-06T14:20:13.371Z,17.37
2019-04-06T14:23:03.336Z,18.23
2019-04-06T14:26:11.605Z,15.40
2019-04-06T14:29:00.527Z,15.33
2019-04-06T14:31:55.300Z,17.90
2019-04-06T14:34:54.837Z,18.97
2019-04-06T14:37:37.351Z,16.97
2019-04-06T14:40:35.013Z,19.53
2019-04-06T14:43:31.238Z,15.87
2019-04-06T14:46:21.440Z,14.70
2019-04-06T14:49:27.489Z,16.17
2019-04-06T14:52:15.430Z,16.37
2019-04-06T14:54:56.906Z,16.33
2019-04-06T14:57:40.891Z,17.33
2019-04-06T15:00:27.382Z,19.77
2019-04-06T15:03:29.733Z,16.20
2019-04-06T15:06:31.587Z,17.63
2019-04-06T15:09:22.131Z,18.17
2019-04-06T15:12:17.862Z,16.93
2019-04-06T15:15:19.826Z,14.73
2019-04-06T15:18:08.252Z,17.33
2019-04-06T15:20:52.320Z,16.47
2019-04-06T15:23:43.134Z,16.57
2019-04-06T15:26:43.053Z,15.30
2019-04-06T15:29:41.124Z,16.90
2019-04-06T15:32:37.218Z,15.70
2019-04-06T15:35:26.006Z,19.43
2019-04-06T15:38:14.804Z,13.00
2019-04-06T15:41:08.517Z,20.03
2019-04-06T15:43:53.461Z,20.17
2019-04-06T15:46:46.883Z,18.10
2019-04-06T15:49:29.329Z,16.67
2019-04-06T15:52:17.797Z,17.80
2019-04-06T15:55:02.884Z,16.00
2019-04-06T15:58:01.872Z,18.97
2019-04-06T16:00:55.004Z,17.90
2019-04-06T16:03:45.102Z,17.00
2019-04-06T16:06:31.569Z,16.63
2019-04-06T16:09:37.534Z,16.07
2019-04-06T16:12:29.284Z,17.97
2019-04-06T16:15:19.526Z,19.00
2019-04-06T16:18:07.240Z,17.30
2019-04-06T16:21:05.768Z,21.03
2019-04-06T16:24:10.113Z,19.27
2019-04-06T16:26:49.737Z,19.97
2019-04-06T16:29:54.823Z,17.87
2019-04-06T16:32:43.962Z,19.40
2019-04-06T16:35:34.447Z,24.80
2019-04-06T16:38:27.905Z,19.30
2019-04-06T16:41:24.048Z,23.50
2019-04-06T16:44:02.762Z,19.77
2019-04-06T16:47:07.550Z,19.23
2019-04-06T16:50:06.599Z,20.30
2019-04-06T16:52:47.124Z,21.70
2019-04-06T16:55:52.344Z,19.97
2019-04-06T16:58:41.095Z,21.80
2019-04-06T17:01:26.538Z,19.23
2019-04-06T17:04:06.920Z,20.17
2019-04-06T17:06:55.652Z,22.07
2019-04-06T17:09:45.774Z,22.80
2019-04-06T17:12:41.883Z,23.13
2019-04-06T17:15:41.489Z,21.17
2019-04-06T17:18:22.816Z,21.00
2019-04-06T17:21:13.030Z,23.70
2019-04-06T17:24:06.005Z,22.67
2019-04-06T17:27:02.061Z,22.93
2019-04-06T17:30:11.181Z,22.23
2019-04-06T17:33:05.613Z,18.63
2019-04-06T17:36:01.808Z,18.33
2019-04-06T17:38:45.318Z,21.23
2019-04-06T17:41:53.569Z,17.70
2019-04-06T17:44:41.688Z,24.47
2019-04-06T17:47:37.744Z,23.67
2019-04-06T17:50:25.007Z,22.00
2019-04-06T17:53:07.195Z,20.77
2019-04-06T17:56:03.486Z,22.63
2019-04-06T17:58:43.366Z,23.43
2019-04-06T18:01:32.176Z,21.03
2019-04-06T18:04:31.131Z,20.50
2019-04-06T18:07:31.128Z,19.53
2019-04-06T18:10:25.445Z,19.87
2019-04-06T18:13:11.339Z,20.23
2019-04-06T18:15:43.057Z,19.30
2019-04-06T18:18:14.208Z,19.97
2019-04-06T18:20:45.206Z,17.03
2019-04-06T18:23:16.506Z,21.13
2019-04-06T18:25:47.598Z,20.10
2019-04-06T18:28:18.720Z,24.47
2019-04-06T18:30:57.193Z,20.63
2019-04-06T18:33:28.495Z,22.10
2019-04-06T18:35:59.987Z,22.73
2019-04-06T18:38:43.269Z,22.43
2019-04-06T18:41:14.865Z,22.90
2019-04-06T18:43:46.236Z,22.83
2019-04-06T18:46:17.306Z,21.73
2019-04-06T18:48:48.640Z,22.57
2019-04-06T18:51:20.637Z,24.47
2019-04-06T18:53:52.942Z,22.63
2019-04-06T18:56:24.410Z,25.40
2019-04-06T18:58:55.537Z,19.53
2019-04-06T19:01:27.035Z,18.90
2019-04-06T19:03:57.981Z,20.33
2019-04-06T19:06:29.440Z,19.53
2019-04-06T19:09:00.791Z,25.03
2019-04-06T19:11:33.710Z,19.83
2019-04-06T19:14:04.919Z,19.00
2019-04-06T19:16:35.809Z,24.00
2019-04-06T19:19:06.782Z,15.50
2019-04-06T19:21:37.778Z,19.77
2019-04-06T19:24:08.875Z,24.03
2019-04-06T19:26:40.105Z,25.47
2019-04-06T19:29:11.177Z,21.53
2019-04-06T19:31:42.494Z,21.30
2019-04-06T19:34:13.903Z,23.93
2019-04-06T19:36:45.387Z,20.43
2019-04-06T19:39:16.959Z,25.70
2019-04-06T19:41:48.316Z,22.23
2019-04-06T19:44:20.629Z,22.23
2019-04-06T19:46:52.869Z,22.67
2019-04-06T19:49:24.139Z,25.50
2019-04-06T19:51:55.557Z,23.10
2019-04-06T19:54:27.923Z,24.10
2019-04-06T19:56:59.206Z,20.87
2019-04-06T19:59:30.672Z,27.53
2019-04-06T20:02:01.774Z,24.33
2019-04-06T20:04:32.878Z,19.27
2019-04-06T20:07:04.208Z,23.80
2019-04-06T20:09:35.585Z,23.17
2019-04-06T20:12:07.783Z,25.00
2019-04-06T20:14:39.422Z,24.50
2019-04-06T20:17:10.989Z,22.73
2019-04-06T20:19:42.222Z,24.23
2019-04-06T20:22:13.800Z,22.60
2019-04-06T20:24:45.576Z,23.63
2019-04-06T20:27:18.591Z,20.30
2019-04-06T20:29:49.773Z,19.43
2019-04-06T20:32:21.306Z,21.23
2019-04-06T20:34:52.471Z,21.23
2019-04-06T20:37:23.833Z,22.33
2019-04-06T20:39:54.855Z,20.33
2019-04-06T20:42:25.805Z,21.10
2019-04-06T20:44:57.181Z,24.77
2019-04-06T20:47:30.512Z,21.67
2019-04-06T20:50:01.801Z,22.00
2019-04-06T20:52:33.077Z,21.87
2019-04-06T20:55:06.349Z,21.73
2019-04-06T20:57:37.583Z,25.53
2019-04-06T21:00:10.156Z,27.47
2019-04-06T21:02:41.729Z,25.10
2019-04-06T21:05:13.753Z,21.90
2019-04-06T21:07:45.102Z,23.73
2019-04-06T21:10:16.469Z,21.67
2019-04-06T21:12:47.802Z,23.00
2019-04-06T21:15:21.167Z,24.73
2019-04-06T21:17:53.306Z,23.93
2019-04-06T21:20:24.664Z,21.30
2019-04-06T21:22:56.300Z,21.17
2019-04-06T21:25:27.627Z,23.07
2019-04-06T21:27:58.851Z,26.60
2019-04-06T21:30:30.021Z,29.30
2019-04-06T21:33:01.745Z,22.70
2019-04-06T21:35:34.534Z,21.73
2019-04-06T21:38:05.601Z,21.80
2019-04-06T21:40:37.358Z,17.67
2019-04-06T21:43:09.061Z,23.40
2019-04-06T21:45:40.951Z,21.48
2019-04-06T21:48:12.510Z,17.32
2019-04-06T21:50:44.166Z,26.03
2019-04-06T21:53:15.536Z,21.55
2019-04-06T21:55:47.165Z,20.13
2019-04-06T21:58:18.735Z,23.67
2019-04-06T22:00:55.686Z,18.90
2019-04-06T22:03:27.147Z,20.87
2019-04-06T22:05:58.285Z,24.73
2019-04-06T22:08:29.797Z,22.35
2019-04-06T22:11:01.729Z,23.77
2019-04-06T22:13:32.880Z,22.33
2019-04-06T22:16:04.453Z,23.83
2019-04-06T22:18:36.230Z,22.62
2019-04-06T22:21:08.101Z,25.15
2019-04-06T22:23:43.326Z,25.25
2019-04-06T22:26:12.566Z,22.27
2019-04-06T22:28:44.315Z,26.07
2019-04-06T22:31:16.463Z,23.90
2019-04-06T22:33:47.446Z,23.40
2019-04-06T22:36:18.948Z,22.43
2019-04-06T22:38:50.393Z,26.93
2019-04-06T22:41:21.895Z,23.83
2019-04-06T22:43:53.132Z,23.45
2019-04-06T22:46:25.174Z,26.60
2019-04-06T22:48:57.495Z,23.52
2019-04-06T22:51:28.880Z,26.80
2019-04-06T22:54:00.344Z,24.27
2019-04-06T22:56:31.710Z,24.70
2019-04-06T22:59:03.171Z,23.57
2019-04-06T23:01:37.349Z,25.27
2019-04-06T23:04:31.089Z,21.05
2019-04-06T23:07:12.195Z,20.88
2019-04-06T23:09:44.024Z,22.73
2019-04-06T23:12:15.565Z,25.48
2019-04-06T23:14:47.700Z,23.67
2019-04-06T23:17:19.622Z,22.90
2019-04-06T23:19:51.149Z,24.32
2019-04-06T23:22:22.680Z,22.32
2019-04-06T23:24:54.745Z,21.95
2019-04-06T23:27:26.400Z,24.32
2019-04-06T23:29:57.665Z,22.27
2019-04-06T23:32:29.597Z,21.80
2019-04-06T23:35:02.648Z,20.45
2019-04-06T23:37:34.250Z,22.75
2019-04-06T23:40:06.621Z,24.18
2019-04-06T23:42:37.960Z,23.85
2019-04-06T23:45:10.291Z,24.63
2019-04-06T23:47:41.713Z,26.27
2019-04-06T23:50:13.443Z,22.17
2019-04-06T23:52:45.145Z,24.63
2019-04-06T23:55:16.792Z,25.55
2019-04-06T23:57:48.401Z,22.40
